createdAt,value
2019-05-03T00:00:15.992Z,0.00
2019-05-03T00:01:15.985Z,0.00
2019-05-03T00:02:15.984Z,0.00
2019-05-03T00:03:15.977Z,0.00
2019-05-03T00:04:15.971Z,0.00
2019-05-03T00:05:15.966Z,0.00
2019-05-03T00:06:15.961Z,0.00
2019-05-03T00:07:15.956Z,0.00
2019-05-03T00:08:15.950Z,0.00
2019-05-03T00:09:15.946Z,0.00
2019-05-03T00:10:15.941Z,0.00
2019-05-03T00:11:15.936Z,0.00
2019-05-03T00:12:15.936Z,0.00
2019-05-03T00:13:15.926Z,0.00
2019-05-03T00:14:15.921Z,0.00
2019-05-03T00:15:15.914Z,0.00
2019-05-03T00:16:15.911Z,0.00
2019-05-03T00:17:15.905Z,0.00
2019-05-03T00:18:15.900Z,0.00
2019-05-03T00:19:15.906Z,0.00
2019-05-03T00:20:15.890Z,0.00
2019-05-03T00:21:15.885Z,0.00
2019-05-03T00:22:15.879Z,0.00
2019-05-03T00:23:15.874Z,0.00
2019-05-03T00:24:15.868Z,0.00
2019-05-03T00:25:15.863Z,0.00
2019-05-03T00:26:15.858Z,0.00
2019-05-03T00:27:15.864Z,0.00
2019-05-03T00:28:15.848Z,0.00
2019-05-03T00:29:15.843Z,0.00
2019-05-03T00:30:15.837Z,0.00
2019-05-03T00:31:15.833Z,0.00
2019-05-03T00:32:15.827Z,0.00
2019-05-03T00:33:15.824Z,0.00
2019-05-03T00:34:15.816Z,0.00
2019-05-03T00:35:15.816Z,0.00
2019-05-03T00:36:15.811Z,0.00
2019-05-03T00:37:15.803Z,0.00
2019-05-03T00:38:15.797Z,0.00
2019-05-03T00:39:15.792Z,0.00
2019-05-03T00:40:15.785Z,0.00
2019-05-03T00:41:15.783Z,0.00
2019-05-03T00:42:15.784Z,0.00
2019-05-03T00:43:15.772Z,0.00
2019-05-03T00:44:15.767Z,0.00
2019-05-03T00:45:15.761Z,0.00
2019-05-03T00:46:15.756Z,0.00
2019-05-03T00:47:15.751Z,0.00
2019-05-03T00:48:15.749Z,0.00
2019-05-03T00:49:15.740Z,0.00
2019-05-03T00:50:15.735Z,0.00
2019-05-03T00:51:15.732Z,0.00
2019-05-03T00:52:15.725Z,0.00
2019-05-03T00:53:15.720Z,0.00
2019-05-03T00:54:15.716Z,0.00
2019-05-03T00:55:18.753Z,0.00
2019-05-03T00:56:15.714Z,0.00
2019-05-03T00:57:15.703Z,0.00
2019-05-03T00:58:15.695Z,0.00
2019-05-03T00:59:15.690Z,0.00
2019-05-03T01:00:15.685Z,0.00
2019-05-03T01:01:15.679Z,0.00
2019-05-03T01:02:15.674Z,0.00
2019-05-03T01:03:15.670Z,0.00
2019-05-03T01:04:15.662Z,0.00
2019-05-03T01:05:15.657Z,0.00
2019-05-03T01:06:15.652Z,0.00
2019-05-03T01:07:15.650Z,0.00
2019-05-03T01:08:15.645Z,0.00
2019-05-03T01:09:15.636Z,0.00
2019-05-03T01:10:15.631Z,0.00
2019-05-03T01:11:15.627Z,0.00
2019-05-03T01:12:15.624Z,0.00
2019-05-03T01:13:15.616Z,0.00
2019-05-03T01:14:15.613Z,0.00
2019-05-03T01:15:15.607Z,0.00
2019-05-03T01:16:15.601Z,0.00
2019-05-03T01:17:15.597Z,0.00
2019-05-03T01:18:15.591Z,0.00
2019-05-03T01:19:15.586Z,0.00
2019-05-03T01:20:15.581Z,0.00
2019-05-03T01:21:15.575Z,0.00
2019-05-03T01:22:15.570Z,0.00
2019-05-03T01:23:15.565Z,0.00
2019-05-03T01:24:18.125Z,0.00
2019-05-03T01:25:15.553Z,0.00
2019-05-03T01:26:15.548Z,0.00
2019-05-03T01:27:15.543Z,0.00
2019-05-03T01:28:15.538Z,0.00
2019-05-03T01:29:15.532Z,0.00
2019-05-03T01:30:15.528Z,0.00
2019-05-03T01:31:15.522Z,0.00
2019-05-03T01:32:15.517Z,0.00
2019-05-03T01:33:15.511Z,0.00
2019-05-03T01:34:15.506Z,0.00
2019-05-03T01:35:15.518Z,0.00
2019-05-03T01:36:15.497Z,0.00
2019-05-03T01:37:15.492Z,0.00
2019-05-03T01:38:15.487Z,0.00
2019-05-03T01:39:15.482Z,0.00
2019-05-03T01:40:15.476Z,0.00
2019-05-03T01:41:15.470Z,0.00
2019-05-03T01:42:15.465Z,0.00
2019-05-03T01:43:15.461Z,0.00
2019-05-03T01:44:15.459Z,0.00
2019-05-03T01:45:15.451Z,0.00
2019-05-03T01:46:15.444Z,0.00
2019-05-03T01:47:15.440Z,0.00
2019-05-03T01:48:15.434Z,0.00
2019-05-03T01:49:15.428Z,0.00
2019-05-03T01:50:15.423Z,0.00
2019-05-03T01:51:15.418Z,0.00
2019-05-03T01:52:15.412Z,0.00
2019-05-03T01:53:15.407Z,0.00
2019-05-03T01:54:15.403Z,0.00
2019-05-03T01:55:16.001Z,0.00
2019-05-03T01:56:15.397Z,0.00
2019-05-03T01:57:15.386Z,0.00
2019-05-03T01:58:15.382Z,0.00
2019-05-03T01:59:15.377Z,0.00
2019-05-03T02:00:15.382Z,0.00
2019-05-03T02:01:15.365Z,0.00
2019-05-03T02:02:15.362Z,0.00
2019-05-03T02:03:15.356Z,0.00
2019-05-03T02:04:15.350Z,0.00
2019-05-03T02:05:15.347Z,0.00
2019-05-03T02:06:15.342Z,0.00
2019-05-03T02:07:15.334Z,0.00
2019-05-03T02:08:15.331Z,0.00
2019-05-03T02:09:15.323Z,0.00
2019-05-03T02:10:15.319Z,0.00
2019-05-03T02:11:15.314Z,0.00
2019-05-03T02:12:15.315Z,0.00
2019-05-03T02:13:15.303Z,0.00
2019-05-03T02:14:15.299Z,0.00
2019-05-03T02:15:15.293Z,0.00
2019-05-03T02:16:15.296Z,0.00
2019-05-03T02:17:15.281Z,0.00
2019-05-03T02:18:15.314Z,0.00
2019-05-03T02:19:15.271Z,0.00
2019-05-03T02:20:15.266Z,0.00
2019-05-03T02:21:15.260Z,0.00
2019-05-03T02:22:15.256Z,0.00
2019-05-03T02:23:15.251Z,0.00
2019-05-03T02:24:15.245Z,0.00
2019-05-03T02:25:15.240Z,0.00
2019-05-03T02:26:15.235Z,0.00
2019-05-03T02:27:15.232Z,0.00
2019-05-03T02:28:15.225Z,0.00
2019-05-03T02:29:15.222Z,0.00
2019-05-03T02:30:15.215Z,0.00
2019-05-03T02:31:15.210Z,0.00
2019-05-03T02:32:15.204Z,0.00
2019-05-03T02:33:15.199Z,0.00
2019-05-03T02:34:15.194Z,0.00
2019-05-03T02:35:15.191Z,0.00
2019-05-03T02:36:15.183Z,0.00
2019-05-03T02:37:15.176Z,0.00
2019-05-03T02:38:15.179Z,0.00
2019-05-03T02:39:15.166Z,0.00
2019-05-03T02:40:15.161Z,0.00
2019-05-03T02:41:15.157Z,0.00
2019-05-03T02:42:16.109Z,0.00
2019-05-03T02:43:16.520Z,0.00
2019-05-03T02:44:15.593Z,0.00
2019-05-03T02:45:15.484Z,0.00
2019-05-03T02:46:16.721Z,0.00
2019-05-03T02:47:15.917Z,0.00
2019-05-03T02:48:16.577Z,0.00
2019-05-03T02:49:15.421Z,0.00
2019-05-03T02:50:16.719Z,0.00
2019-05-03T02:51:15.727Z,0.00
2019-05-03T02:52:15.235Z,0.00
2019-05-03T02:53:15.780Z,0.00
2019-05-03T02:54:15.698Z,0.00
2019-05-03T02:55:15.992Z,0.00
2019-05-03T02:56:22.010Z,0.00
2019-05-03T02:57:15.153Z,0.00
2019-05-03T02:58:15.915Z,0.00
2019-05-03T02:59:15.800Z,0.00
2019-05-03T03:00:16.277Z,0.00
2019-05-03T03:01:16.326Z,0.00
2019-05-03T03:02:15.220Z,0.00
2019-05-03T03:03:16.673Z,0.00
2019-05-03T03:04:15.744Z,0.00
2019-05-03T03:05:16.588Z,0.00
2019-05-03T03:06:15.766Z,0.00
2019-05-03T03:07:15.206Z,0.00
2019-05-03T03:08:16.273Z,0.00
2019-05-03T03:09:16.479Z,0.00
2019-05-03T03:10:16.188Z,0.00
2019-05-03T03:11:15.577Z,0.00
2019-05-03T03:12:15.285Z,0.00
2019-05-03T03:13:16.317Z,0.00
2019-05-03T03:14:16.731Z,0.00
2019-05-03T03:15:16.238Z,0.00
2019-05-03T03:16:16.294Z,0.00
2019-05-03T03:17:15.014Z,0.00
2019-05-03T03:18:15.742Z,0.00
2019-05-03T03:19:15.890Z,0.00
2019-05-03T03:20:16.130Z,0.00
2019-05-03T03:21:16.076Z,0.00
2019-05-03T03:22:15.937Z,0.00
2019-05-03T03:23:17.970Z,0.00
2019-05-03T03:24:16.952Z,0.00
2019-05-03T03:25:17.626Z,0.00
2019-05-03T03:26:16.977Z,0.00
2019-05-03T03:27:16.330Z,0.00
2019-05-03T03:28:15.854Z,0.00
2019-05-03T03:29:16.083Z,0.00
2019-05-03T03:30:17.353Z,0.00
2019-05-03T03:31:17.650Z,0.00
2019-05-03T03:32:18.219Z,0.00
2019-05-03T03:33:17.550Z,0.00
2019-05-03T03:34:18.395Z,0.00
2019-05-03T03:35:20.209Z,0.00
2019-05-03T03:36:37.837Z,0.00
2019-05-03T03:37:15.592Z,0.00
2019-05-03T03:38:15.507Z,0.00
2019-05-03T03:39:15.089Z,0.00
2019-05-03T03:40:16.057Z,0.00
2019-05-03T03:41:16.278Z,0.00
2019-05-03T03:42:16.082Z,0.00
2019-05-03T03:43:15.690Z,0.00
2019-05-03T03:44:15.258Z,0.00
2019-05-03T03:45:16.609Z,0.00
2019-05-03T03:46:15.763Z,0.00
2019-05-03T03:47:16.785Z,0.00
2019-05-03T03:48:15.770Z,0.00
2019-05-03T03:49:15.543Z,0.00
2019-05-03T03:50:15.144Z,0.00
2019-05-03T03:51:15.558Z,0.00
2019-05-03T03:52:15.992Z,0.00
2019-05-03T03:53:15.440Z,0.00
2019-05-03T03:54:15.471Z,0.00
2019-05-03T03:55:15.921Z,0.00
2019-05-03T03:56:15.994Z,0.00
2019-05-03T03:57:15.896Z,0.00
2019-05-03T03:58:21.923Z,0.00
2019-05-03T03:59:15.382Z,0.00
2019-05-03T04:00:16.233Z,0.00
2019-05-03T04:01:15.690Z,0.00
2019-05-03T04:02:16.061Z,0.00
2019-05-03T04:03:15.804Z,0.00
2019-05-03T04:04:16.026Z,0.28
2019-05-03T04:05:15.921Z,2.09
2019-05-03T04:06:15.381Z,2.37
2019-05-03T04:07:15.747Z,2.37
2019-05-03T04:08:16.193Z,0.09
2019-05-03T04:09:16.078Z,1.42
2019-05-03T04:10:15.665Z,3.80
2019-05-03T04:11:15.611Z,3.99
2019-05-03T04:12:16.558Z,7.41
2019-05-03T04:13:15.942Z,13.02
2019-05-03T04:14:16.131Z,13.96
2019-05-03T04:15:16.027Z,13.21
2019-05-03T04:16:20.307Z,13.96
2019-05-03T04:17:15.061Z,16.15
2019-05-03T04:18:16.331Z,17.29
2019-05-03T04:19:17.147Z,15.97
2019-05-03T04:20:16.280Z,16.15
2019-05-03T04:21:16.252Z,16.54
2019-05-03T04:22:16.484Z,17.02
2019-05-03T04:23:16.287Z,16.83
2019-05-03T04:24:16.298Z,15.48
2019-05-03T04:25:15.441Z,13.78
2019-05-03T04:26:16.334Z,14.73
2019-05-03T04:27:22.259Z,14.73
2019-05-03T04:28:16.282Z,13.96
2019-05-03T04:29:16.086Z,13.40
2019-05-03T04:30:16.473Z,11.88
2019-05-03T04:31:15.210Z,10.93
2019-05-03T04:32:15.738Z,8.36
2019-05-03T04:33:16.030Z,8.56
2019-05-03T04:34:16.189Z,7.22
2019-05-03T04:35:16.521Z,6.84
2019-05-03T04:36:16.007Z,8.17
2019-05-03T04:37:16.098Z,8.27
2019-05-03T04:38:16.208Z,6.27
2019-05-03T04:39:19.642Z,5.04
2019-05-03T04:40:15.566Z,5.04
2019-05-03T04:41:15.862Z,6.65
2019-05-03T04:42:16.583Z,6.27
2019-05-03T04:43:16.480Z,6.94
2019-05-03T04:44:15.513Z,5.80
2019-05-03T04:45:16.566Z,5.22
2019-05-03T04:46:16.411Z,4.66
2019-05-03T04:47:15.700Z,6.18
2019-05-03T04:48:15.998Z,10.55
2019-05-03T04:49:15.138Z,15.50
2019-05-03T04:50:16.309Z,18.05
2019-05-03T04:51:16.646Z,22.53
2019-05-03T04:52:16.515Z,27.84
2019-05-03T04:53:16.227Z,30.43
2019-05-03T04:54:16.340Z,30.80
2019-05-03T04:55:16.038Z,30.90
2019-05-03T04:56:16.941Z,33.07
2019-05-03T04:57:16.050Z,33.37
2019-05-03T04:58:16.091Z,33.73
2019-05-03T04:59:15.918Z,34.51
2019-05-03T05:00:15.951Z,35.35
2019-05-03T05:01:15.834Z,36.04
2019-05-03T05:02:15.886Z,35.46
2019-05-03T05:03:15.097Z,34.80
2019-05-03T05:04:16.103Z,34.50
2019-05-03T05:05:15.341Z,33.47
2019-05-03T05:06:15.433Z,35.92
2019-05-03T05:07:15.483Z,33.54
2019-05-03T05:08:16.240Z,33.47
2019-05-03T05:09:15.531Z,33.65
2019-05-03T05:10:15.302Z,33.09
2019-05-03T05:11:15.740Z,34.32
2019-05-03T05:12:16.137Z,33.64
2019-05-03T05:13:15.785Z,33.28
2019-05-03T05:14:15.321Z,33.28
2019-05-03T05:15:15.609Z,33.56
2019-05-03T05:16:16.009Z,33.18
2019-05-03T05:17:16.285Z,32.32
2019-05-03T05:18:15.938Z,33.65
2019-05-03T05:19:15.189Z,34.32
2019-05-03T05:20:14.506Z,32.42
2019-05-03T05:21:15.000Z,33.47
2019-05-03T05:22:15.529Z,35.46
2019-05-03T05:23:14.747Z,32.99
2019-05-03T05:24:15.162Z,34.03
2019-05-03T05:25:14.851Z,33.28
2019-05-03T05:26:14.462Z,32.90
2019-05-03T05:27:14.659Z,30.90
2019-05-03T05:28:15.001Z,32.32
2019-05-03T05:29:14.579Z,31.56
2019-05-03T05:30:14.924Z,32.90
2019-05-03T05:31:15.156Z,34.13
2019-05-03T05:32:14.461Z,33.28
2019-05-03T05:33:14.550Z,33.18
2019-05-03T05:34:15.360Z,33.47
2019-05-03T05:35:14.428Z,34.44
2019-05-03T05:36:15.303Z,36.22
2019-05-03T05:37:14.547Z,36.15
2019-05-03T05:38:15.000Z,34.34
2019-05-03T05:39:15.247Z,34.24
2019-05-03T05:40:15.633Z,35.77
2019-05-03T05:41:15.626Z,38.71
2019-05-03T05:42:14.892Z,38.43
2019-05-03T05:43:15.197Z,38.62
2019-05-03T05:44:14.525Z,39.57
2019-05-03T05:45:15.342Z,40.43
2019-05-03T05:46:14.647Z,40.33
2019-05-03T05:47:15.005Z,39.57
2019-05-03T05:48:15.369Z,41.85
2019-05-03T05:49:14.679Z,41.28
2019-05-03T05:50:14.890Z,39.48
2019-05-03T05:51:15.967Z,39.28
2019-05-03T05:52:15.497Z,39.48
2019-05-03T05:53:15.266Z,43.09
2019-05-03T05:54:14.374Z,44.61
2019-05-03T05:55:14.950Z,47.85
2019-05-03T05:56:15.671Z,53.36
2019-05-03T05:57:14.989Z,55.08
2019-05-03T05:58:15.562Z,52.80
2019-05-03T05:59:14.850Z,52.22
2019-05-03T06:00:15.302Z,51.37
2019-05-03T06:01:14.622Z,53.94
2019-05-03T06:02:15.033Z,53.46
2019-05-03T06:03:14.931Z,52.03
2019-05-03T06:04:15.379Z,56.60
2019-05-03T06:05:14.809Z,59.36
2019-05-03T06:06:15.255Z,58.79
2019-05-03T06:07:14.867Z,56.51
2019-05-03T06:08:15.082Z,58.50
2019-05-03T06:09:15.306Z,58.50
2019-05-03T06:10:14.745Z,54.41
2019-05-03T06:11:14.896Z,60.02
2019-05-03T06:12:14.889Z,59.93
2019-05-03T06:13:15.235Z,58.12
2019-05-03T06:14:15.317Z,58.12
2019-05-03T06:15:15.003Z,56.98
2019-05-03T06:16:15.506Z,57.65
2019-05-03T06:17:14.618Z,56.22
2019-05-03T06:18:14.631Z,56.70
2019-05-03T06:19:14.679Z,57.36
2019-05-03T06:20:15.578Z,58.69
2019-05-03T06:21:14.812Z,56.51
2019-05-03T06:22:15.354Z,54.60
2019-05-03T06:23:14.450Z,55.46
2019-05-03T06:24:14.796Z,56.88
2019-05-03T06:25:16.636Z,56.41
2019-05-03T06:26:15.637Z,53.46
2019-05-03T06:27:15.273Z,59.74
2019-05-03T06:28:19.931Z,60.78
2019-05-03T06:29:14.956Z,59.17
2019-05-03T06:30:14.965Z,59.10
2019-05-03T06:31:14.891Z,61.00
2019-05-03T06:32:15.403Z,63.96
2019-05-03T06:33:14.359Z,62.05
2019-05-03T06:34:14.959Z,61.67
2019-05-03T06:35:15.229Z,64.62
2019-05-03T06:36:15.275Z,61.96
2019-05-03T06:37:14.833Z,60.05
2019-05-03T06:38:15.256Z,60.91
2019-05-03T06:39:15.466Z,65.58
2019-05-03T06:40:14.934Z,68.43
2019-05-03T06:41:15.052Z,68.33
2019-05-03T06:42:16.030Z,71.28
2019-05-03T06:43:15.614Z,73.19
2019-05-03T06:44:14.440Z,76.42
2019-05-03T06:45:15.053Z,78.04
2019-05-03T06:46:16.421Z,76.61
2019-05-03T06:47:14.839Z,76.71
2019-05-03T06:48:15.772Z,76.04
2019-05-03T06:49:15.147Z,75.28
2019-05-03T06:50:14.561Z,78.90
2019-05-03T06:51:19.180Z,77.56
2019-05-03T06:52:14.738Z,75.67
2019-05-03T06:53:15.491Z,76.71
2019-05-03T06:54:15.637Z,74.24
2019-05-03T06:55:14.474Z,74.71
2019-05-03T06:56:14.829Z,72.75
2019-05-03T06:57:14.806Z,80.36
2019-05-03T06:58:15.314Z,79.03
2019-05-03T06:59:14.389Z,78.65
2019-05-03T07:00:15.366Z,78.46
2019-05-03T07:01:14.897Z,80.08
2019-05-03T07:02:14.869Z,80.65
2019-05-03T07:03:15.157Z,81.41
2019-05-03T07:04:15.214Z,79.38
2019-05-03T07:05:15.281Z,77.47
2019-05-03T07:06:15.043Z,80.23
2019-05-03T07:07:15.420Z,78.71
2019-05-03T07:08:15.223Z,80.23
2019-05-03T07:09:14.454Z,81.32
2019-05-03T07:10:15.028Z,81.41
2019-05-03T07:11:15.356Z,80.84
2019-05-03T07:12:14.854Z,79.57
2019-05-03T07:13:15.189Z,79.85
2019-05-03T07:14:15.433Z,80.61
2019-05-03T07:15:14.486Z,82.23
2019-05-03T07:16:14.938Z,78.80
2019-05-03T07:17:14.474Z,80.80
2019-05-03T07:18:15.586Z,79.51
2019-05-03T07:19:14.744Z,79.89
2019-05-03T07:20:14.830Z,80.84
2019-05-03T07:21:15.257Z,82.37
2019-05-03T07:22:15.233Z,83.32
2019-05-03T07:23:15.428Z,82.69
2019-05-03T07:24:14.664Z,84.50
2019-05-03T07:25:14.939Z,86.22
2019-05-03T07:26:15.061Z,83.65
2019-05-03T07:27:15.703Z,82.03
2019-05-03T07:28:14.970Z,83.26
2019-05-03T07:29:15.253Z,82.60
2019-05-03T07:30:15.541Z,84.22
2019-05-03T07:31:15.058Z,82.69
2019-05-03T07:32:15.392Z,83.07
2019-05-03T07:33:15.085Z,81.93
2019-05-03T07:34:15.427Z,82.89
2019-05-03T07:35:14.765Z,81.07
2019-05-03T07:36:15.297Z,82.12
2019-05-03T07:37:14.558Z,84.64
2019-05-03T07:38:15.485Z,84.83
2019-05-03T07:39:14.516Z,84.31
2019-05-03T07:40:14.822Z,82.98
2019-05-03T07:41:14.908Z,83.93
2019-05-03T07:42:15.526Z,83.98
2019-05-03T07:43:14.864Z,82.84
2019-05-03T07:44:15.221Z,81.89
2019-05-03T07:45:14.915Z,81.70
2019-05-03T07:46:14.681Z,83.89
2019-05-03T07:47:14.883Z,83.61
2019-05-03T07:48:15.037Z,84.08
2019-05-03T07:49:15.258Z,84.65
2019-05-03T07:50:15.236Z,82.08
2019-05-03T07:51:14.450Z,82.80
2019-05-03T07:52:14.755Z,82.37
2019-05-03T07:53:15.108Z,82.32
2019-05-03T07:54:15.514Z,82.23
2019-05-03T07:55:14.994Z,82.84
2019-05-03T07:56:15.389Z,84.75
2019-05-03T07:57:14.908Z,84.65
2019-05-03T07:58:15.024Z,85.41
2019-05-03T07:59:14.978Z,85.75
2019-05-03T08:00:14.984Z,84.99
2019-05-03T08:01:14.917Z,84.99
2019-05-03T08:02:14.466Z,86.13
2019-05-03T08:03:15.310Z,85.66
2019-05-03T08:04:15.268Z,86.13
2019-05-03T08:05:15.431Z,85.56
2019-05-03T08:06:14.936Z,85.08
2019-05-03T08:07:20.713Z,89.31
2019-05-03T08:08:14.948Z,89.07
2019-05-03T08:09:15.171Z,87.49
2019-05-03T08:10:15.311Z,85.63
2019-05-03T08:11:14.437Z,82.65
2019-05-03T08:12:15.362Z,76.88
2019-05-03T08:13:15.085Z,75.45
2019-05-03T08:14:16.079Z,76.73
2019-05-03T08:15:15.586Z,75.20
2019-05-03T08:16:15.900Z,72.33
2019-05-03T08:17:15.243Z,67.71
2019-05-03T08:18:15.364Z,67.08
2019-05-03T08:19:15.199Z,68.29
2019-05-03T08:20:14.402Z,68.61
2019-05-03T08:21:14.921Z,67.08
2019-05-03T08:22:14.957Z,64.72
2019-05-03T08:23:24.405Z,64.53
2019-05-03T08:24:14.938Z,65.07
2019-05-03T08:25:14.646Z,65.01
2019-05-03T08:26:15.311Z,68.32
2019-05-03T08:27:14.812Z,70.47
2019-05-03T08:28:14.654Z,72.53
2019-05-03T08:29:18.374Z,76.82
2019-05-03T08:30:14.775Z,79.97
2019-05-03T08:31:15.116Z,80.60
2019-05-03T08:32:15.322Z,81.74
2019-05-03T08:33:14.744Z,82.31
2019-05-03T08:34:15.274Z,82.50
2019-05-03T08:35:15.192Z,82.79
2019-05-03T08:36:15.488Z,83.84
2019-05-03T08:37:15.228Z,84.31
2019-05-03T08:38:15.197Z,84.69
2019-05-03T08:39:15.740Z,83.53
2019-05-03T08:40:15.465Z,80.09
2019-05-03T08:41:14.548Z,78.31
2019-05-03T08:42:15.000Z,77.01
2019-05-03T08:43:15.417Z,75.30
2019-05-03T08:44:14.548Z,73.83
2019-05-03T08:45:14.833Z,73.25
2019-05-03T08:46:14.845Z,74.74
2019-05-03T08:47:15.362Z,75.76
2019-05-03T08:48:15.087Z,78.33
2019-05-03T08:49:15.041Z,80.11
2019-05-03T08:50:19.386Z,80.01
2019-05-03T08:51:14.880Z,79.88
2019-05-03T08:52:15.543Z,80.79
2019-05-03T08:53:15.407Z,82.12
2019-05-03T08:54:15.076Z,83.36
2019-05-03T08:55:15.644Z,84.60
2019-05-03T08:56:15.497Z,84.45
2019-05-03T08:57:14.954Z,83.69
2019-05-03T08:58:15.360Z,83.44
2019-05-03T08:59:26.182Z,83.73
2019-05-03T09:00:14.454Z,82.40
2019-05-03T09:01:14.825Z,81.06
2019-05-03T09:02:14.266Z,80.01
2019-05-03T09:03:14.414Z,79.68
2019-05-03T09:04:15.376Z,79.11
2019-05-03T09:05:15.316Z,79.30
2019-05-03T09:06:15.318Z,79.11
2019-05-03T09:07:14.766Z,79.21
2019-05-03T09:08:15.577Z,79.59
2019-05-03T09:09:15.061Z,79.17
2019-05-03T09:10:16.792Z,78.98
2019-05-03T09:11:15.399Z,80.22
2019-05-03T09:12:14.491Z,81.07
2019-05-03T09:13:14.744Z,81.65
2019-05-03T09:14:14.970Z,81.65
2019-05-03T09:15:15.172Z,82.54
2019-05-03T09:16:14.773Z,83.29
2019-05-03T09:17:15.116Z,80.22
2019-05-03T09:18:16.848Z,74.05
2019-05-03T09:19:14.761Z,71.51
2019-05-03T09:20:15.449Z,68.96
2019-05-03T09:21:14.758Z,65.97
2019-05-03T09:22:14.795Z,65.74
2019-05-03T09:23:14.881Z,64.50
2019-05-03T09:24:15.027Z,63.54
2019-05-03T09:25:15.325Z,63.45
2019-05-03T09:26:15.113Z,64.62
2019-05-03T09:27:14.887Z,64.22
2019-05-03T09:28:15.063Z,64.56
2019-05-03T09:29:14.767Z,65.17
2019-05-03T09:30:14.538Z,66.69
2019-05-03T09:31:15.332Z,69.43
2019-05-03T09:32:14.732Z,71.04
2019-05-03T09:33:15.147Z,73.81
2019-05-03T09:34:14.776Z,75.15
2019-05-03T09:35:27.203Z,75.72
2019-05-03T09:36:14.672Z,76.48
2019-05-03T09:37:15.362Z,75.20
2019-05-03T09:38:15.017Z,75.40
2019-05-03T09:39:14.898Z,75.87
2019-05-03T09:40:15.054Z,76.44
2019-05-03T09:41:15.039Z,77.17
2019-05-03T09:42:15.392Z,79.02
2019-05-03T09:43:15.058Z,77.87
2019-05-03T09:44:15.081Z,76.10
2019-05-03T09:45:15.253Z,74.84
2019-05-03T09:46:14.594Z,71.72
2019-05-03T09:47:14.633Z,68.61
2019-05-03T09:48:15.039Z,66.54
2019-05-03T09:49:16.228Z,65.07
2019-05-03T09:50:15.473Z,64.62
2019-05-03T09:51:14.801Z,62.90
2019-05-03T09:52:15.805Z,62.62
2019-05-03T09:53:14.763Z,61.60
2019-05-03T09:54:14.858Z,61.02
2019-05-03T09:55:14.516Z,59.94
2019-05-03T09:56:15.370Z,59.69
2019-05-03T09:57:15.191Z,59.81
2019-05-03T09:58:15.160Z,58.12
2019-05-03T09:59:14.794Z,56.68
2019-05-03T10:00:13.529Z,56.81
2019-05-03T10:01:15.077Z,55.79
2019-05-03T10:02:15.031Z,56.24
2019-05-03T10:03:13.542Z,57.71
2019-05-03T10:04:13.538Z,59.50
2019-05-03T10:05:15.473Z,61.57
2019-05-03T10:06:15.296Z,62.52
2019-05-03T10:07:15.310Z,63.29
2019-05-03T10:08:15.595Z,64.50
2019-05-03T10:09:15.370Z,65.36
2019-05-03T10:10:15.424Z,64.88
2019-05-03T10:11:15.505Z,66.69
2019-05-03T10:12:15.966Z,68.03
2019-05-03T10:13:21.645Z,68.26
2019-05-03T10:14:15.440Z,68.41
2019-05-03T10:15:15.358Z,65.70
2019-05-03T10:16:15.397Z,66.66
2019-05-03T10:17:15.235Z,66.66
2019-05-03T10:18:13.561Z,67.52
2019-05-03T10:19:14.355Z,67.42
2019-05-03T10:20:15.288Z,69.14
2019-05-03T10:21:14.836Z,69.65
2019-05-03T10:22:15.374Z,68.70
2019-05-03T10:23:14.908Z,68.26
2019-05-03T10:24:15.222Z,67.62
2019-05-03T10:25:13.562Z,66.76
2019-05-03T10:26:14.993Z,65.80
2019-05-03T10:27:15.222Z,64.75
2019-05-03T10:28:15.254Z,63.64
2019-05-03T10:29:15.256Z,62.78
2019-05-03T10:30:16.546Z,62.78
2019-05-03T10:31:13.567Z,62.65
2019-05-03T10:32:15.121Z,63.60
2019-05-03T10:33:15.519Z,63.10
2019-05-03T10:34:15.423Z,63.96
2019-05-03T10:35:15.175Z,64.72
2019-05-03T10:36:15.400Z,65.83
2019-05-03T10:37:15.151Z,67.04
2019-05-03T10:38:15.142Z,67.46
2019-05-03T10:39:15.380Z,68.28
2019-05-03T10:40:13.560Z,68.57
2019-05-03T10:41:13.561Z,69.71
2019-05-03T10:42:13.562Z,70.51
2019-05-03T10:43:13.562Z,71.02
2019-05-03T10:44:15.059Z,70.26
2019-05-03T10:45:15.190Z,68.48
2019-05-03T10:46:15.672Z,67.01
2019-05-03T10:47:14.677Z,67.36
2019-05-03T10:48:15.362Z,65.07
2019-05-03T10:49:15.174Z,63.89
2019-05-03T10:50:15.447Z,64.09
2019-05-03T10:51:15.366Z,64.37
2019-05-03T10:52:15.025Z,64.31
2019-05-03T10:53:15.286Z,61.79
2019-05-03T10:54:14.622Z,59.94
2019-05-03T10:55:15.717Z,60.10
2019-05-03T10:56:14.796Z,60.61
2019-05-03T10:57:15.754Z,61.19
2019-05-03T10:58:15.554Z,60.99
2019-05-03T10:59:13.556Z,61.16
2019-05-03T11:00:41.706Z,61.35
2019-05-03T11:01:13.557Z,62.27
2019-05-03T11:02:13.557Z,62.62
2019-05-03T11:03:13.556Z,63.10
2019-05-03T11:04:14.758Z,63.39
2019-05-03T11:05:14.627Z,62.78
2019-05-03T11:06:14.818Z,64.59
2019-05-03T11:07:14.910Z,64.43
2019-05-03T11:08:14.562Z,62.71
2019-05-03T11:09:15.261Z,61.54
2019-05-03T11:10:14.686Z,62.24
2019-05-03T11:11:15.107Z,61.92
2019-05-03T11:12:14.794Z,62.68
2019-05-03T11:13:15.306Z,62.91
2019-05-03T11:14:14.958Z,62.43
2019-05-03T11:15:14.965Z,62.43
2019-05-03T11:16:14.822Z,62.49
2019-05-03T11:17:14.857Z,63.64
2019-05-03T11:18:14.696Z,64.59
2019-05-03T11:19:14.516Z,64.69
2019-05-03T11:20:22.206Z,65.45
2019-05-03T11:21:15.527Z,65.26
2019-05-03T11:22:14.577Z,64.50
2019-05-03T11:23:14.646Z,63.83
2019-05-03T11:24:14.787Z,63.07
2019-05-03T11:25:13.549Z,63.16
2019-05-03T11:26:13.549Z,63.67
2019-05-03T11:27:13.548Z,63.76
2019-05-03T11:28:13.546Z,64.34
2019-05-03T11:29:15.365Z,62.62
2019-05-03T11:30:15.637Z,62.59
2019-05-03T11:31:15.494Z,63.16
2019-05-03T11:32:14.904Z,63.35
2019-05-03T11:33:15.157Z,63.76
2019-05-03T11:34:15.092Z,63.20
2019-05-03T11:35:15.017Z,62.43
2019-05-03T11:36:14.950Z,63.13
2019-05-03T11:37:14.547Z,63.13
2019-05-03T11:38:15.070Z,62.94
2019-05-03T11:39:14.493Z,62.18
2019-05-03T11:40:15.545Z,62.01
2019-05-03T11:41:16.469Z,60.84
2019-05-03T11:42:15.173Z,60.39
2019-05-03T11:43:15.144Z,60.39
2019-05-03T11:44:15.371Z,59.63
2019-05-03T11:45:15.148Z,59.50
2019-05-03T11:46:13.523Z,59.59
2019-05-03T11:47:15.035Z,59.78
2019-05-03T11:48:14.811Z,59.78
2019-05-03T11:49:14.864Z,59.50
2019-05-03T11:50:14.815Z,60.39
2019-05-03T11:51:15.182Z,59.69
2019-05-03T11:52:15.740Z,57.97
2019-05-03T11:53:14.542Z,58.70
2019-05-03T11:54:15.534Z,60.52
2019-05-03T11:55:15.743Z,60.33
2019-05-03T11:56:14.844Z,59.56
2019-05-03T11:57:15.673Z,59.38
2019-05-03T11:58:14.947Z,59.56
2019-05-03T11:59:14.771Z,59.76
2019-05-03T12:00:14.726Z,59.66
2019-05-03T12:01:19.521Z,58.80
2019-05-03T12:02:15.239Z,58.90
2019-05-03T12:03:15.236Z,58.80
2019-05-03T12:04:15.316Z,59.76
2019-05-03T12:05:15.096Z,60.33
2019-05-03T12:06:15.509Z,60.87
2019-05-03T12:07:15.318Z,60.97
2019-05-03T12:08:14.751Z,61.16
2019-05-03T12:09:15.464Z,61.16
2019-05-03T12:10:26.606Z,61.54
2019-05-03T12:11:15.080Z,62.11
2019-05-03T12:12:15.046Z,62.49
2019-05-03T12:13:15.583Z,62.78
2019-05-03T12:14:15.204Z,63.29
2019-05-03T12:15:14.970Z,62.52
2019-05-03T12:16:19.452Z,63.89
2019-05-03T12:17:20.869Z,62.05
2019-05-03T12:18:15.895Z,62.34
2019-05-03T12:19:17.910Z,61.95
2019-05-03T12:20:16.744Z,62.34
2019-05-03T12:21:16.908Z,61.57
2019-05-03T12:22:14.273Z,62.24
2019-05-03T12:23:16.053Z,62.52
2019-05-03T12:24:15.589Z,62.71
2019-05-03T12:25:15.905Z,62.71
2019-05-03T12:26:14.713Z,62.34
2019-05-03T12:27:15.023Z,62.78
2019-05-03T12:28:15.302Z,63.39
2019-05-03T12:29:15.246Z,63.96
2019-05-03T12:30:15.276Z,63.26
2019-05-03T12:31:29.787Z,64.12
2019-05-03T12:32:14.433Z,64.81
2019-05-03T12:33:15.308Z,63.86
2019-05-03T12:34:13.456Z,63.67
2019-05-03T12:35:15.382Z,63.76
2019-05-03T12:36:15.251Z,64.25
2019-05-03T12:37:15.455Z,65.58
2019-05-03T12:38:16.294Z,65.48
2019-05-03T12:39:24.097Z,64.34
2019-05-03T12:40:14.944Z,64.05
2019-05-03T12:41:15.053Z,63.76
2019-05-03T12:42:14.862Z,64.28
2019-05-03T12:43:14.963Z,63.99
2019-05-03T12:44:15.181Z,63.07
2019-05-03T12:45:15.066Z,62.94
2019-05-03T12:46:16.644Z,61.98
2019-05-03T12:47:14.561Z,62.71
2019-05-03T12:48:15.367Z,63.23
2019-05-03T12:49:15.411Z,63.10
2019-05-03T12:50:15.459Z,63.32
2019-05-03T12:51:15.217Z,63.80
2019-05-03T12:52:16.096Z,63.10
2019-05-03T12:53:15.089Z,62.52
2019-05-03T12:54:15.175Z,62.94
2019-05-03T12:55:15.227Z,62.94
2019-05-03T12:56:16.098Z,63.03
2019-05-03T12:57:15.386Z,64.02
2019-05-03T12:58:15.035Z,63.13
2019-05-03T12:59:13.404Z,63.42
2019-05-03T13:00:15.523Z,63.76
2019-05-03T13:01:15.610Z,64.37